sensor_id;sensor_type;location;lat;lon;timestamp;P1;durP1;ratioP1;P2;durP2;ratioP2
13832;SDS011;6987;19.472;-99.276;2022-12-18T00:00:08;21.13;;;12.18;;
13832;SDS011;6987;19.472;-99.276;2022-12-18T00:02:37;18.70;;;11.63;;
13832;SDS011;6987;19.472;-99.276;2022-12-18T00:05:06;16.48;;;11.02;;
13832;SDS011;6987;19.472;-99.276;2022-12-18T00:07:37;19.38;;;11.05;;
13832;SDS011;6987;19.472;-99.276;2022-12-18T00:10:06;20.83;;;11.02;;
13832;SDS011;6987;19.472;-99.276;2022-12-18T00:12:34;15.85;;;10.38;;
13832;SDS011;6987;19.472;-99.276;2022-12-18T00:15:03;17.25;;;10.00;;
13832;SDS011;6987;19.472;-99.276;2022-12-18T00:17:32;21.88;;;11.43;;
13832;SDS011;6987;19.472;-99.276;2022-12-18T00:20:01;18.27;;;10.30;;
13832;SDS011;6987;19.472;-99.276;2022-12-18T00:22:29;17.23;;;11.43;;
13832;SDS011;6987;19.472;-99.276;2022-12-18T00:25:00;24.73;;;12.00;;
13832;SDS011;6987;19.472;-99.276;2022-12-18T00:27:28;20.85;;;12.07;;
13832;SDS011;6987;19.472;-99.276;2022-12-18T00:29:57;19.83;;;11.55;;
13832;SDS011;6987;19.472;-99.276;2022-12-18T00:32:26;27.50;;;12.38;;
13832;SDS011;6987;19.472;-99.276;2022-12-18T00:34:54;26.92;;;16.63;;
13832;SDS011;6987;19.472;-99.276;2022-12-18T00:37:23;23.23;;;13.98;;
13832;SDS011;6987;19.472;-99.276;2022-12-18T00:39:52;28.65;;;14.13;;
13832;SDS011;6987;19.472;-99.276;2022-12-18T00:42:22;25.17;;;10.85;;
13832;SDS011;6987;19.472;-99.276;2022-12-18T00:45:10;17.77;;;12.18;;
13832;SDS011;6987;19.472;-99.276;2022-12-18T00:47:39;24.38;;;14.82;;
13832;SDS011;6987;19.472;-99.276;2022-12-18T00:50:08;41.95;;;15.35;;
13832;SDS011;6987;19.472;-99.276;2022-12-18T00:52:37;29.10;;;16.38;;
13832;SDS011;6987;19.472;-99.276;2022-12-18T00:55:06;43.30;;;18.02;;
13832;SDS011;6987;19.472;-99.276;2022-12-18T00:57:36;19.15;;;13.57;;
13832;SDS011;6987;19.472;-99.276;2022-12-18T01:00:05;18.92;;;13.43;;
13832;SDS011;6987;19.472;-99.276;2022-12-18T01:02:36;34.40;;;18.95;;
13832;SDS011;6987;19.472;-99.276;2022-12-18T01:05:05;33.42;;;18.88;;
13832;SDS011;6987;19.472;-99.276;2022-12-18T01:07:33;20.73;;;15.10;;
13832;SDS011;6987;19.472;-99.276;2022-12-18T01:10:02;22.88;;;16.30;;
13832;SDS011;6987;19.472;-99.276;2022-12-18T01:12:31;19.52;;;12.52;;
13832;SDS011;6987;19.472;-99.276;2022-12-18T01:15:02;26.63;;;12.13;;
13832;SDS011;6987;19.472;-99.276;2022-12-18T01:17:30;17.45;;;13.13;;
13832;SDS011;6987;19.472;-99.276;2022-12-18T01:19:59;18.98;;;13.15;;
13832;SDS011;6987;19.472;-99.276;2022-12-18T01:22:28;22.73;;;12.90;;
13832;SDS011;6987;19.472;-99.276;2022-12-18T01:24:59;20.73;;;14.10;;
13832;SDS011;6987;19.472;-99.276;2022-12-18T01:27:27;22.17;;;13.65;;
13832;SDS011;6987;19.472;-99.276;2022-12-18T01:29:56;20.35;;;13.23;;
13832;SDS011;6987;19.472;-99.276;2022-12-18T01:32:28;16.83;;;12.25;;
13832;SDS011;6987;19.472;-99.276;2022-12-18T01:34:57;20.33;;;13.32;;
13832;SDS011;6987;19.472;-99.276;2022-12-18T01:37:26;23.50;;;14.48;;
13832;SDS011;6987;19.472;-99.276;2022-12-18T01:39:55;20.83;;;15.18;;
13832;SDS011;6987;19.472;-99.276;2022-12-18T01:42:24;28.98;;;15.65;;
13832;SDS011;6987;19.472;-99.276;2022-12-18T01:47:33;30.42;;;15.15;;
13832;SDS011;6987;19.472;-99.276;2022-12-18T01:50:04;24.05;;;15.13;;
13832;SDS011;6987;19.472;-99.276;2022-12-18T01:52:34;29.77;;;15.73;;
13832;SDS011;6987;19.472;-99.276;2022-12-18T01:55:05;24.73;;;14.85;;
13832;SDS011;6987;19.472;-99.276;2022-12-18T01:57:34;26.60;;;15.10;;
13832;SDS011;6987;19.472;-99.276;2022-12-18T02:00:04;27.10;;;14.55;;
13832;SDS011;6987;19.472;-99.276;2022-12-18T02:02:34;23.92;;;15.02;;
13832;SDS011;6987;19.472;-99.276;2022-12-18T02:05:03;23.20;;;14.48;;
13832;SDS011;6987;19.472;-99.276;2022-12-18T02:07:35;28.45;;;13.40;;
13832;SDS011;6987;19.472;-99.276;2022-12-18T02:10:06;22.90;;;14.98;;
13832;SDS011;6987;19.472;-99.276;2022-12-18T02:12:42;20.35;;;13.65;;
13832;SDS011;6987;19.472;-99.276;2022-12-18T02:15:13;24.90;;;14.65;;
13832;SDS011;6987;19.472;-99.276;2022-12-18T02:17:45;24.48;;;14.25;;
13832;SDS011;6987;19.472;-99.276;2022-12-18T02:20:16;29.33;;;14.57;;
13832;SDS011;6987;19.472;-99.276;2022-12-18T02:22:49;25.30;;;15.13;;
13832;SDS011;6987;19.472;-99.276;2022-12-18T02:25:26;28.17;;;15.10;;
13832;SDS011;6987;19.472;-99.276;2022-12-18T02:28:01;32.58;;;16.67;;
13832;SDS011;6987;19.472;-99.276;2022-12-18T02:30:32;28.67;;;16.00;;
13832;SDS011;6987;19.472;-99.276;2022-12-18T02:33:02;31.83;;;16.58;;
13832;SDS011;6987;19.472;-99.276;2022-12-18T02:35:32;34.35;;;16.65;;
13832;SDS011;6987;19.472;-99.276;2022-12-18T02:38:01;32.10;;;18.17;;
13832;SDS011;6987;19.472;-99.276;2022-12-18T02:40:31;23.27;;;16.10;;
13832;SDS011;6987;19.472;-99.276;2022-12-18T02:43:06;24.83;;;16.48;;
13832;SDS011;6987;19.472;-99.276;2022-12-18T02:45:35;26.00;;;16.15;;
13832;SDS011;6987;19.472;-99.276;2022-12-18T02:48:04;22.83;;;15.25;;
13832;SDS011;6987;19.472;-99.276;2022-12-18T02:50:34;26.25;;;15.23;;
13832;SDS011;6987;19.472;-99.276;2022-12-18T02:53:05;22.27;;;15.00;;
13832;SDS011;6987;19.472;-99.276;2022-12-18T02:55:41;21.48;;;15.85;;
13832;SDS011;6987;19.472;-99.276;2022-12-18T02:58:16;21.00;;;15.48;;
13832;SDS011;6987;19.472;-99.276;2022-12-18T03:00:48;20.95;;;14.70;;
13832;SDS011;6987;19.472;-99.276;2022-12-18T03:03:19;20.63;;;15.32;;
13832;SDS011;6987;19.472;-99.276;2022-12-18T03:05:52;18.13;;;14.57;;
13832;SDS011;6987;19.472;-99.276;2022-12-18T03:08:22;22.65;;;15.07;;
13832;SDS011;6987;19.472;-99.276;2022-12-18T03:10:52;22.42;;;14.82;;
13832;SDS011;6987;19.472;-99.276;2022-12-18T03:13:25;19.45;;;14.63;;
13832;SDS011;6987;19.472;-99.276;2022-12-18T03:15:55;20.15;;;14.82;;
13832;SDS011;6987;19.472;-99.276;2022-12-18T03:18:25;21.75;;;15.50;;
13832;SDS011;6987;19.472;-99.276;2022-12-18T03:20:55;24.08;;;15.80;;
13832;SDS011;6987;19.472;-99.276;2022-12-18T03:23:26;25.10;;;16.60;;
13832;SDS011;6987;19.472;-99.276;2022-12-18T03:25:57;29.33;;;16.40;;
13832;SDS011;6987;19.472;-99.276;2022-12-18T03:28:29;25.13;;;15.65;;
13832;SDS011;6987;19.472;-99.276;2022-12-18T03:30:58;23.27;;;15.70;;
13832;SDS011;6987;19.472;-99.276;2022-12-18T03:33:29;22.88;;;16.25;;
13832;SDS011;6987;19.472;-99.276;2022-12-18T03:35:59;31.75;;;16.30;;
13832;SDS011;6987;19.472;-99.276;2022-12-18T03:38:27;24.17;;;17.20;;
13832;SDS011;6987;19.472;-99.276;2022-12-18T03:40:58;22.48;;;16.52;;
13832;SDS011;6987;19.472;-99.276;2022-12-18T03:43:32;29.30;;;17.13;;
13832;SDS011;6987;19.472;-99.276;2022-12-18T03:46:04;22.88;;;16.48;;
13832;SDS011;6987;19.472;-99.276;2022-12-18T03:48:35;25.00;;;16.98;;
13832;SDS011;6987;19.472;-99.276;2022-12-18T03:51:06;27.40;;;16.73;;
13832;SDS011;6987;19.472;-99.276;2022-12-18T03:53:37;26.83;;;17.63;;
13832;SDS011;6987;19.472;-99.276;2022-12-18T03:56:07;27.73;;;17.40;;
13832;SDS011;6987;19.472;-99.276;2022-12-18T03:58:39;22.02;;;16.50;;
13832;SDS011;6987;19.472;-99.276;2022-12-18T04:01:08;20.50;;;16.05;;
13832;SDS011;6987;19.472;-99.276;2022-12-18T04:03:38;20.05;;;16.52;;
13832;SDS011;6987;19.472;-99.276;2022-12-18T04:06:07;25.58;;;16.65;;
13832;SDS011;6987;19.472;-99.276;2022-12-18T04:08:36;33.95;;;16.48;;
13832;SDS011;6987;19.472;-99.276;2022-12-18T04:11:05;21.27;;;17.20;;
13832;SDS011;6987;19.472;-99.276;2022-12-18T04:13:34;21.27;;;16.42;;
13832;SDS011;6987;19.472;-99.276;2022-12-18T04:16:05;26.35;;;16.90;;
13832;SDS011;6987;19.472;-99.276;2022-12-18T04:18:35;21.10;;;15.65;;
13832;SDS011;6987;19.472;-99.276;2022-12-18T04:21:03;22.25;;;16.75;;
13832;SDS011;6987;19.472;-99.276;2022-12-18T04:23:32;21.48;;;15.68;;
13832;SDS011;6987;19.472;-99.276;2022-12-18T04:26:01;26.73;;;17.65;;
13832;SDS011;6987;19.472;-99.276;2022-12-18T04:28:30;19.67;;;16.25;;
13832;SDS011;6987;19.472;-99.276;2022-12-18T04:30:58;20.73;;;16.40;;
13832;SDS011;6987;19.472;-99.276;2022-12-18T04:33:29;28.67;;;16.48;;
13832;SDS011;6987;19.472;-99.276;2022-12-18T04:35:58;31.52;;;17.73;;
13832;SDS011;6987;19.472;-99.276;2022-12-18T04:38:26;27.38;;;18.20;;
13832;SDS011;6987;19.472;-99.276;2022-12-18T04:40:55;27.60;;;20.33;;
13832;SDS011;6987;19.472;-99.276;2022-12-18T04:43:23;29.30;;;19.45;;
13832;SDS011;6987;19.472;-99.276;2022-12-18T04:45:52;35.88;;;23.92;;
13832;SDS011;6987;19.472;-99.276;2022-12-18T04:48:21;51.25;;;26.42;;
13832;SDS011;6987;19.472;-99.276;2022-12-18T04:50:51;38.38;;;25.65;;
13832;SDS011;6987;19.472;-99.276;2022-12-18T04:53:20;44.17;;;27.17;;
13832;SDS011;6987;19.472;-99.276;2022-12-18T04:55:49;39.60;;;28.23;;
13832;SDS011;6987;19.472;-99.276;2022-12-18T04:58:17;44.85;;;27.55;;
13832;SDS011;6987;19.472;-99.276;2022-12-18T05:00:46;48.00;;;30.13;;
13832;SDS011;6987;19.472;-99.276;2022-12-18T05:03:15;60.08;;;35.70;;
13832;SDS011;6987;19.472;-99.276;2022-12-18T05:05:43;56.40;;;34.13;;
13832;SDS011;6987;19.472;-99.276;2022-12-18T05:08:14;59.33;;;36.17;;
13832;SDS011;6987;19.472;-99.276;2022-12-18T05:10:42;64.15;;;37.05;;
13832;SDS011;6987;19.472;-99.276;2022-12-18T05:13:11;53.78;;;33.20;;
13832;SDS011;6987;19.472;-99.276;2022-12-18T05:15:40;56.05;;;34.72;;
13832;SDS011;6987;19.472;-99.276;2022-12-18T05:18:09;57.35;;;34.00;;
13832;SDS011;6987;19.472;-99.276;2022-12-18T05:20:37;57.72;;;36.33;;
13832;SDS011;6987;19.472;-99.276;2022-12-18T05:23:06;62.80;;;37.03;;
13832;SDS011;6987;19.472;-99.276;2022-12-18T05:25:36;62.83;;;35.63;;
13832;SDS011;6987;19.472;-99.276;2022-12-18T05:28:05;53.28;;;34.50;;
13832;SDS011;6987;19.472;-99.276;2022-12-18T05:30:34;59.55;;;35.22;;
13832;SDS011;6987;19.472;-99.276;2022-12-18T05:33:02;62.38;;;36.40;;
13832;SDS011;6987;19.472;-99.276;2022-12-18T05:35:31;54.75;;;32.15;;
13832;SDS011;6987;19.472;-99.276;2022-12-18T05:38:00;62.17;;;33.50;;
13832;SDS011;6987;19.472;-99.276;2022-12-18T05:40:28;53.42;;;31.75;;
13832;SDS011;6987;19.472;-99.276;2022-12-18T05:42:58;59.45;;;34.88;;
13832;SDS011;6987;19.472;-99.276;2022-12-18T05:45:27;60.88;;;32.72;;
13832;SDS011;6987;19.472;-99.276;2022-12-18T05:47:56;54.97;;;31.23;;
13832;SDS011;6987;19.472;-99.276;2022-12-18T05:50:24;61.17;;;34.28;;
13832;SDS011;6987;19.472;-99.276;2022-12-18T05:52:53;60.47;;;32.72;;
13832;SDS011;6987;19.472;-99.276;2022-12-18T05:55:22;52.88;;;32.78;;
13832;SDS011;6987;19.472;-99.276;2022-12-18T05:57:51;55.50;;;32.85;;
13832;SDS011;6987;19.472;-99.276;2022-12-18T06:00:22;59.25;;;32.45;;
13832;SDS011;6987;19.472;-99.276;2022-12-18T06:02:50;37.05;;;24.73;;
13832;SDS011;6987;19.472;-99.276;2022-12-18T06:05:20;55.25;;;29.02;;
13832;SDS011;6987;19.472;-99.276;2022-12-18T06:07:49;45.35;;;26.10;;
13832;SDS011;6987;19.472;-99.276;2022-12-18T06:10:18;49.85;;;28.70;;
13832;SDS011;6987;19.472;-99.276;2022-12-18T06:12:46;48.13;;;28.80;;
13832;SDS011;6987;19.472;-99.276;2022-12-18T06:15:15;42.72;;;26.25;;
13832;SDS011;6987;19.472;-99.276;2022-12-18T06:17:45;38.08;;;24.48;;
13832;SDS011;6987;19.472;-99.276;2022-12-18T06:20:14;37.97;;;23.85;;
13832;SDS011;6987;19.472;-99.276;2022-12-18T06:22:43;35.65;;;24.77;;
13832;SDS011;6987;19.472;-99.276;2022-12-18T06:25:11;37.78;;;22.35;;
13832;SDS011;6987;19.472;-99.276;2022-12-18T06:27:40;45.33;;;25.00;;
13832;SDS011;6987;19.472;-99.276;2022-12-18T06:30:09;36.83;;;22.33;;
13832;SDS011;6987;19.472;-99.276;2022-12-18T06:32:38;36.00;;;22.98;;
13832;SDS011;6987;19.472;-99.276;2022-12-18T06:35:09;36.88;;;22.08;;
13832;SDS011;6987;19.472;-99.276;2022-12-18T06:37:37;36.40;;;22.70;;
13832;SDS011;6987;19.472;-99.276;2022-12-18T06:40:06;32.47;;;22.23;;
13832;SDS011;6987;19.472;-99.276;2022-12-18T06:42:35;32.97;;;20.55;;
13832;SDS011;6987;19.472;-99.276;2022-12-18T06:45:04;32.42;;;21.60;;
13832;SDS011;6987;19.472;-99.276;2022-12-18T06:47:33;27.00;;;17.70;;
13832;SDS011;6987;19.472;-99.276;2022-12-18T06:50:01;29.98;;;19.42;;
13832;SDS011;6987;19.472;-99.276;2022-12-18T06:52:33;28.17;;;20.23;;
13832;SDS011;6987;19.472;-99.276;2022-12-18T06:55:02;30.52;;;19.30;;
13832;SDS011;6987;19.472;-99.276;2022-12-18T06:57:31;31.95;;;19.30;;
13832;SDS011;6987;19.472;-99.276;2022-12-18T07:00:00;30.10;;;19.08;;
13832;SDS011;6987;19.472;-99.276;2022-12-18T07:02:28;30.92;;;20.55;;
13832;SDS011;6987;19.472;-99.276;2022-12-18T07:04:57;24.67;;;17.85;;
13832;SDS011;6987;19.472;-99.276;2022-12-18T07:07:26;27.08;;;18.00;;
13832;SDS011;6987;19.472;-99.276;2022-12-18T07:09:56;26.90;;;19.10;;
13832;SDS011;6987;19.472;-99.276;2022-12-18T07:12:25;27.23;;;18.80;;
13832;SDS011;6987;19.472;-99.276;2022-12-18T07:14:54;31.30;;;19.17;;
13832;SDS011;6987;19.472;-99.276;2022-12-18T07:17:23;23.17;;;18.38;;
13832;SDS011;6987;19.472;-99.276;2022-12-18T07:19:52;26.35;;;18.40;;
13832;SDS011;6987;19.472;-99.276;2022-12-18T07:22:20;23.33;;;18.17;;
13832;SDS011;6987;19.472;-99.276;2022-12-18T07:24:49;26.40;;;18.15;;
13832;SDS011;6987;19.472;-99.276;2022-12-18T07:27:19;28.90;;;18.08;;
13832;SDS011;6987;19.472;-99.276;2022-12-18T07:29:48;25.65;;;18.40;;
13832;SDS011;6987;19.472;-99.276;2022-12-18T07:32:17;21.63;;;18.23;;
13832;SDS011;6987;19.472;-99.276;2022-12-18T07:34:45;23.88;;;18.13;;
13832;SDS011;6987;19.472;-99.276;2022-12-18T07:37:14;22.83;;;17.70;;
13832;SDS011;6987;19.472;-99.276;2022-12-18T07:39:43;24.50;;;18.30;;
13832;SDS011;6987;19.472;-99.276;2022-12-18T07:42:11;21.88;;;17.85;;
13832;SDS011;6987;19.472;-99.276;2022-12-18T07:45:00;28.88;;;18.27;;
13832;SDS011;6987;19.472;-99.276;2022-12-18T07:47:29;24.90;;;18.23;;
13832;SDS011;6987;19.472;-99.276;2022-12-18T07:49:58;26.38;;;18.52;;
13832;SDS011;6987;19.472;-99.276;2022-12-18T07:52:27;25.60;;;19.02;;
13832;SDS011;6987;19.472;-99.276;2022-12-18T07:54:55;24.75;;;18.25;;
13832;SDS011;6987;19.472;-99.276;2022-12-18T07:57:24;27.42;;;19.25;;
13832;SDS011;6987;19.472;-99.276;2022-12-18T07:59:53;26.05;;;17.90;;
13832;SDS011;6987;19.472;-99.276;2022-12-18T08:02:23;24.08;;;18.20;;
13832;SDS011;6987;19.472;-99.276;2022-12-18T08:04:52;23.85;;;18.13;;
13832;SDS011;6987;19.472;-99.276;2022-12-18T08:07:20;25.50;;;18.52;;
13832;SDS011;6987;19.472;-99.276;2022-12-18T08:09:49;26.38;;;18.23;;
13832;SDS011;6987;19.472;-99.276;2022-12-18T08:12:18;25.25;;;17.83;;
13832;SDS011;6987;19.472;-99.276;2022-12-18T08:14:46;22.75;;;18.83;;
13832;SDS011;6987;19.472;-99.276;2022-12-18T08:17:15;21.80;;;17.40;;
13832;SDS011;6987;19.472;-99.276;2022-12-18T08:19:45;23.52;;;17.65;;
13832;SDS011;6987;19.472;-99.276;2022-12-18T08:22:14;23.48;;;17.02;;
13832;SDS011;6987;19.472;-99.276;2022-12-18T08:24:43;23.45;;;17.48;;
13832;SDS011;6987;19.472;-99.276;2022-12-18T08:27:11;21.75;;;15.98;;
13832;SDS011;6987;19.472;-99.276;2022-12-18T08:29:40;23.98;;;18.05;;
13832;SDS011;6987;19.472;-99.276;2022-12-18T08:32:09;22.73;;;16.65;;
13832;SDS011;6987;19.472;-99.276;2022-12-18T08:34:37;23.95;;;18.27;;
13832;SDS011;6987;19.472;-99.276;2022-12-18T08:37:08;25.20;;;18.55;;
13832;SDS011;6987;19.472;-99.276;2022-12-18T08:39:36;20.83;;;17.20;;
13832;SDS011;6987;19.472;-99.276;2022-12-18T08:42:05;27.33;;;18.35;;
13832;SDS011;6987;19.472;-99.276;2022-12-18T08:44:50;23.27;;;18.60;;
13832;SDS011;6987;19.472;-99.276;2022-12-18T08:47:19;27.08;;;18.23;;
13832;SDS011;6987;19.472;-99.276;2022-12-18T08:49:48;24.52;;;17.13;;
13832;SDS011;6987;19.472;-99.276;2022-12-18T08:52:18;21.48;;;17.55;;
13832;SDS011;6987;19.472;-99.276;2022-12-18T08:54:47;21.10;;;17.13;;
13832;SDS011;6987;19.472;-99.276;2022-12-18T08:57:15;24.52;;;17.25;;
13832;SDS011;6987;19.472;-99.276;2022-12-18T09:00:07;22.92;;;18.02;;
13832;SDS011;6987;19.472;-99.276;2022-12-18T09:02:36;27.25;;;18.83;;
13832;SDS011;6987;19.472;-99.276;2022-12-18T09:05:05;25.77;;;18.30;;
13832;SDS011;6987;19.472;-99.276;2022-12-18T09:07:33;22.25;;;17.50;;
13832;SDS011;6987;19.472;-99.276;2022-12-18T09:10:02;25.30;;;18.00;;
13832;SDS011;6987;19.472;-99.276;2022-12-18T09:15:00;23.23;;;16.98;;
13832;SDS011;6987;19.472;-99.276;2022-12-18T09:17:30;22.70;;;18.42;;
13832;SDS011;6987;19.472;-99.276;2022-12-18T09:19:59;21.95;;;17.77;;
13832;SDS011;6987;19.472;-99.276;2022-12-18T09:22:27;24.50;;;18.55;;
13832;SDS011;6987;19.472;-99.276;2022-12-18T09:24:56;24.20;;;17.23;;
13832;SDS011;6987;19.472;-99.276;2022-12-18T09:27:25;22.55;;;18.08;;
13832;SDS011;6987;19.472;-99.276;2022-12-18T09:29:53;37.03;;;18.95;;
13832;SDS011;6987;19.472;-99.276;2022-12-18T09:32:22;31.00;;;18.10;;
13832;SDS011;6987;19.472;-99.276;2022-12-18T09:34:52;22.33;;;17.55;;
13832;SDS011;6987;19.472;-99.276;2022-12-18T09:37:21;31.17;;;19.13;;
13832;SDS011;6987;19.472;-99.276;2022-12-18T09:39:49;27.70;;;18.15;;
13832;SDS011;6987;19.472;-99.276;2022-12-18T09:42:19;28.15;;;17.63;;
13832;SDS011;6987;19.472;-99.276;2022-12-18T09:44:49;27.08;;;18.50;;
13832;SDS011;6987;19.472;-99.276;2022-12-18T09:47:18;25.73;;;18.90;;
13832;SDS011;6987;19.472;-99.276;2022-12-18T09:49:52;31.67;;;18.27;;
13832;SDS011;6987;19.472;-99.276;2022-12-18T09:52:23;21.85;;;16.85;;
13832;SDS011;6987;19.472;-99.276;2022-12-18T09:54:54;23.42;;;17.48;;
13832;SDS011;6987;19.472;-99.276;2022-12-18T09:57:24;23.33;;;18.58;;
13832;SDS011;6987;19.472;-99.276;2022-12-18T09:59:55;26.88;;;19.17;;
13832;SDS011;6987;19.472;-99.276;2022-12-18T10:02:26;23.42;;;19.73;;
13832;SDS011;6987;19.472;-99.276;2022-12-18T10:05:04;26.23;;;17.80;;
13832;SDS011;6987;19.472;-99.276;2022-12-18T10:07:37;24.73;;;20.17;;
13832;SDS011;6987;19.472;-99.276;2022-12-18T10:10:13;30.25;;;20.08;;
13832;SDS011;6987;19.472;-99.276;2022-12-18T10:12:44;27.40;;;18.92;;
13832;SDS011;6987;19.472;-99.276;2022-12-18T10:15:16;21.13;;;18.77;;
13832;SDS011;6987;19.472;-99.276;2022-12-18T10:17:51;26.95;;;19.58;;
13832;SDS011;6987;19.472;-99.276;2022-12-18T10:20:27;24.17;;;18.10;;
13832;SDS011;6987;19.472;-99.276;2022-12-18T10:23:00;22.23;;;18.38;;
13832;SDS011;6987;19.472;-99.276;2022-12-18T10:25:34;22.77;;;17.23;;
13832;SDS011;6987;19.472;-99.276;2022-12-18T10:28:07;22.98;;;18.70;;
13832;SDS011;6987;19.472;-99.276;2022-12-18T10:30:38;24.27;;;18.50;;
13832;SDS011;6987;19.472;-99.276;2022-12-18T10:33:08;28.15;;;18.25;;
13832;SDS011;6987;19.472;-99.276;2022-12-18T10:35:39;25.02;;;18.33;;
13832;SDS011;6987;19.472;-99.276;2022-12-18T10:38:20;23.88;;;18.42;;
13832;SDS011;6987;19.472;-99.276;2022-12-18T10:40:50;22.35;;;18.95;;
13832;SDS011;6987;19.472;-99.276;2022-12-18T10:43:20;25.75;;;19.10;;
13832;SDS011;6987;19.472;-99.276;2022-12-18T10:45:58;28.35;;;18.83;;
13832;SDS011;6987;19.472;-99.276;2022-12-18T10:48:28;24.27;;;18.30;;
13832;SDS011;6987;19.472;-99.276;2022-12-18T10:50:59;22.88;;;19.48;;
13832;SDS011;6987;19.472;-99.276;2022-12-18T10:53:29;27.20;;;20.13;;
13832;SDS011;6987;19.472;-99.276;2022-12-18T10:55:59;23.90;;;17.83;;
13832;SDS011;6987;19.472;-99.276;2022-12-18T10:58:28;23.73;;;18.10;;
13832;SDS011;6987;19.472;-99.276;2022-12-18T11:01:02;23.02;;;17.42;;
13832;SDS011;6987;19.472;-99.276;2022-12-18T11:03:31;24.33;;;19.00;;
13832;SDS011;6987;19.472;-99.276;2022-12-18T11:06:03;23.27;;;18.80;;
13832;SDS011;6987;19.472;-99.276;2022-12-18T11:08:32;24.88;;;18.50;;
13832;SDS011;6987;19.472;-99.276;2022-12-18T11:11:01;21.42;;;18.00;;
13832;SDS011;6987;19.472;-99.276;2022-12-18T11:13:30;23.95;;;19.00;;
13832;SDS011;6987;19.472;-99.276;2022-12-18T11:15:59;22.50;;;17.92;;
13832;SDS011;6987;19.472;-99.276;2022-12-18T11:18:28;22.88;;;19.92;;
13832;SDS011;6987;19.472;-99.276;2022-12-18T11:20:58;24.60;;;19.67;;
13832;SDS011;6987;19.472;-99.276;2022-12-18T11:23:29;26.90;;;19.92;;
13832;SDS011;6987;19.472;-99.276;2022-12-18T11:25:59;28.08;;;19.70;;
13832;SDS011;6987;19.472;-99.276;2022-12-18T11:28:29;29.08;;;19.58;;
13832;SDS011;6987;19.472;-99.276;2022-12-18T11:31:16;22.58;;;18.33;;
13832;SDS011;6987;19.472;-99.276;2022-12-18T11:33:46;27.65;;;18.70;;
13832;SDS011;6987;19.472;-99.276;2022-12-18T11:36:15;27.27;;;18.30;;
13832;SDS011;6987;19.472;-99.276;2022-12-18T11:38:46;35.53;;;19.50;;
13832;SDS011;6987;19.472;-99.276;2022-12-18T11:41:19;24.13;;;18.10;;
13832;SDS011;6987;19.472;-99.276;2022-12-18T11:44:09;27.63;;;17.85;;
13832;SDS011;6987;19.472;-99.276;2022-12-18T11:46:40;26.08;;;18.45;;
13832;SDS011;6987;19.472;-99.276;2022-12-18T11:49:12;32.08;;;19.23;;
13832;SDS011;6987;19.472;-99.276;2022-12-18T11:51:43;27.70;;;18.02;;
13832;SDS011;6987;19.472;-99.276;2022-12-18T11:54:15;31.17;;;19.90;;
13832;SDS011;6987;19.472;-99.276;2022-12-18T11:56:45;24.75;;;16.98;;
13832;SDS011;6987;19.472;-99.276;2022-12-18T11:59:15;23.35;;;18.38;;
13832;SDS011;6987;19.472;-99.276;2022-12-18T12:01:48;27.48;;;18.75;;
13832;SDS011;6987;19.472;-99.276;2022-12-18T12:04:21;26.88;;;19.02;;
13832;SDS011;6987;19.472;-99.276;2022-12-18T12:06:53;30.25;;;19.45;;
13832;SDS011;6987;19.472;-99.276;2022-12-18T12:09:30;24.10;;;18.30;;
13832;SDS011;6987;19.472;-99.276;2022-12-18T12:12:06;29.92;;;18.60;;
13832;SDS011;6987;19.472;-99.276;2022-12-18T12:14:40;29.20;;;17.98;;
13832;SDS011;6987;19.472;-99.276;2022-12-18T12:17:14;25.30;;;18.27;;
13832;SDS011;6987;19.472;-99.276;2022-12-18T12:19:47;22.80;;;18.38;;
13832;SDS011;6987;19.472;-99.276;2022-12-18T12:22:19;27.73;;;17.92;;
13832;SDS011;6987;19.472;-99.276;2022-12-18T12:24:56;24.83;;;18.27;;
13832;SDS011;6987;19.472;-99.276;2022-12-18T12:27:30;27.40;;;18.23;;
13832;SDS011;6987;19.472;-99.276;2022-12-18T12:30:03;23.33;;;18.30;;
13832;SDS011;6987;19.472;-99.276;2022-12-18T12:32:39;26.48;;;18.58;;
13832;SDS011;6987;19.472;-99.276;2022-12-18T12:35:15;27.38;;;19.02;;
13832;SDS011;6987;19.472;-99.276;2022-12-18T12:37:51;27.13;;;19.42;;
13832;SDS011;6987;19.472;-99.276;2022-12-18T12:40:23;24.83;;;18.17;;
13832;SDS011;6987;19.472;-99.276;2022-12-18T12:42:53;26.23;;;19.63;;
13832;SDS011;6987;19.472;-99.276;2022-12-18T12:45:42;26.83;;;19.55;;
13832;SDS011;6987;19.472;-99.276;2022-12-18T12:48:16;30.30;;;20.02;;
13832;SDS011;6987;19.472;-99.276;2022-12-18T12:50:46;26.77;;;18.15;;
13832;SDS011;6987;19.472;-99.276;2022-12-18T12:53:19;25.70;;;19.52;;
13832;SDS011;6987;19.472;-99.276;2022-12-18T12:55:51;26.73;;;18.73;;
13832;SDS011;6987;19.472;-99.276;2022-12-18T12:58:23;30.05;;;19.73;;
13832;SDS011;6987;19.472;-99.276;2022-12-18T13:00:54;24.50;;;17.60;;
13832;SDS011;6987;19.472;-99.276;2022-12-18T13:03:28;26.58;;;18.30;;
13832;SDS011;6987;19.472;-99.276;2022-12-18T13:06:03;28.30;;;19.55;;
13832;SDS011;6987;19.472;-99.276;2022-12-18T13:08:34;24.95;;;19.25;;
13832;SDS011;6987;19.472;-99.276;2022-12-18T13:11:30;29.30;;;20.73;;
13832;SDS011;6987;19.472;-99.276;2022-12-18T13:14:29;26.45;;;20.13;;
13832;SDS011;6987;19.472;-99.276;2022-12-18T13:20:04;33.30;;;20.10;;
13832;SDS011;6987;19.472;-99.276;2022-12-18T13:22:35;31.80;;;20.65;;
13832;SDS011;6987;19.472;-99.276;2022-12-18T13:25:20;29.23;;;20.33;;
13832;SDS011;6987;19.472;-99.276;2022-12-18T13:30:47;25.25;;;19.23;;
13832;SDS011;6987;19.472;-99.276;2022-12-18T13:36:31;33.75;;;21.80;;
13832;SDS011;6987;19.472;-99.276;2022-12-18T13:39:10;39.60;;;22.33;;
13832;SDS011;6987;19.472;-99.276;2022-12-18T13:41:39;29.48;;;21.65;;
13832;SDS011;6987;19.472;-99.276;2022-12-18T13:44:12;35.25;;;22.80;;
13832;SDS011;6987;19.472;-99.276;2022-12-18T13:46:46;32.45;;;22.10;;
13832;SDS011;6987;19.472;-99.276;2022-12-18T13:49:20;47.03;;;23.30;;
13832;SDS011;6987;19.472;-99.276;2022-12-18T13:51:50;44.63;;;23.00;;
13832;SDS011;6987;19.472;-99.276;2022-12-18T13:54:19;32.70;;;22.67;;
13832;SDS011;6987;19.472;-99.276;2022-12-18T13:56:49;35.53;;;22.33;;
13832;SDS011;6987;19.472;-99.276;2022-12-18T13:59:19;35.63;;;21.52;;
13832;SDS011;6987;19.472;-99.276;2022-12-18T14:01:51;34.33;;;22.38;;
13832;SDS011;6987;19.472;-99.276;2022-12-18T14:04:21;31.50;;;22.52;;
13832;SDS011;6987;19.472;-99.276;2022-12-18T14:06:51;39.50;;;23.27;;
13832;SDS011;6987;19.472;-99.276;2022-12-18T14:09:21;33.45;;;22.90;;
13832;SDS011;6987;19.472;-99.276;2022-12-18T14:11:51;38.28;;;23.05;;
13832;SDS011;6987;19.472;-99.276;2022-12-18T14:14:41;35.00;;;22.20;;
13832;SDS011;6987;19.472;-99.276;2022-12-18T14:17:12;46.20;;;24.55;;
13832;SDS011;6987;19.472;-99.276;2022-12-18T14:19:41;33.78;;;22.95;;
13832;SDS011;6987;19.472;-99.276;2022-12-18T14:22:14;42.08;;;22.98;;
13832;SDS011;6987;19.472;-99.276;2022-12-18T14:24:43;41.47;;;24.38;;
13832;SDS011;6987;19.472;-99.276;2022-12-18T14:27:13;55.20;;;26.92;;
13832;SDS011;6987;19.472;-99.276;2022-12-18T14:29:48;49.83;;;26.40;;
13832;SDS011;6987;19.472;-99.276;2022-12-18T14:32:19;41.58;;;25.10;;
13832;SDS011;6987;19.472;-99.276;2022-12-18T14:34:49;47.28;;;25.05;;
13832;SDS011;6987;19.472;-99.276;2022-12-18T14:37:20;48.58;;;26.80;;
13832;SDS011;6987;19.472;-99.276;2022-12-18T14:39:53;40.30;;;25.77;;
13832;SDS011;6987;19.472;-99.276;2022-12-18T14:42:23;38.58;;;25.98;;